sensor_id;sensor_type;location;lat;lon;timestamp;temperature;humidity
17954;DHT22;9102;53.548;9.926;2022-11-15T00:01:15;6.90;99.90
17954;DHT22;9102;53.548;9.926;2022-11-15T00:03:43;6.90;99.90
17954;DHT22;9102;53.548;9.926;2022-11-15T00:06:10;6.90;99.90
17954;DHT22;9102;53.548;9.926;2022-11-15T00:08:37;6.90;99.90
17954;DHT22;9102;53.548;9.926;2022-11-15T00:11:05;6.90;99.90
17954;DHT22;9102;53.548;9.926;2022-11-15T00:13:32;6.80;99.90
17954;DHT22;9102;53.548;9.926;2022-11-15T00:16:00;6.80;99.90
17954;DHT22;9102;53.548;9.926;2022-11-15T00:18:27;6.90;99.90
17954;DHT22;9102;53.548;9.926;2022-11-15T00:20:54;6.90;99.90
17954;DHT22;9102;53.548;9.926;2022-11-15T00:23:21;6.90;99.90
17954;DHT22;9102;53.548;9.926;2022-11-15T00:25:55;6.90;99.90
17954;DHT22;9102;53.548;9.926;2022-11-15T00:28:24;7.00;99.90
17954;DHT22;9102;53.548;9.926;2022-11-15T00:30:50;7.10;99.90
17954;DHT22;9102;53.548;9.926;2022-11-15T00:33:18;7.10;99.90
17954;DHT22;9102;53.548;9.926;2022-11-15T00:35:44;7.20;99.90
17954;DHT22;9102;53.548;9.926;2022-11-15T00:38:11;7.10;99.90
17954;DHT22;9102;53.548;9.926;2022-11-15T00:40:38;7.10;99.90
17954;DHT22;9102;53.548;9.926;2022-11-15T00:43:05;7.10;99.90
17954;DHT22;9102;53.548;9.926;2022-11-15T00:45:33;7.00;99.90
17954;DHT22;9102;53.548;9.926;2022-11-15T00:47:59;6.90;99.90
17954;DHT22;9102;53.548;9.926;2022-11-15T00:50:26;6.80;99.90
17954;DHT22;9102;53.548;9.926;2022-11-15T00:52:53;6.90;99.90
17954;DHT22;9102;53.548;9.926;2022-11-15T00:55:20;7.00;99.90
17954;DHT22;9102;53.548;9.926;2022-11-15T00:57:47;7.00;99.90
17954;DHT22;9102;53.548;9.926;2022-11-15T01:00:14;6.90;99.90
17954;DHT22;9102;53.548;9.926;2022-11-15T01:02:42;6.90;99.90
17954;DHT22;9102;53.548;9.926;2022-11-15T01:05:09;6.90;99.90
17954;DHT22;9102;53.548;9.926;2022-11-15T01:07:36;6.90;99.90
17954;DHT22;9102;53.548;9.926;2022-11-15T01:10:05;6.90;99.90
17954;DHT22;9102;53.548;9.926;2022-11-15T01:12:32;6.80;99.90
17954;DHT22;9102;53.548;9.926;2022-11-15T01:14:59;6.90;99.90
17954;DHT22;9102;53.548;9.926;2022-11-15T01:17:25;6.70;99.90
17954;DHT22;9102;53.548;9.926;2022-11-15T01:19:54;6.60;99.90
17954;DHT22;9102;53.548;9.926;2022-11-15T01:22:20;6.60;99.90
17954;DHT22;9102;53.548;9.926;2022-11-15T01:24:49;6.60;99.90
17954;DHT22;9102;53.548;9.926;2022-11-15T01:27:16;6.50;99.90
17954;DHT22;9102;53.548;9.926;2022-11-15T01:29:43;6.50;99.90
17954;DHT22;9102;53.548;9.926;2022-11-15T01:32:10;6.50;99.90
17954;DHT22;9102;53.548;9.926;2022-11-15T01:34:36;6.50;99.90
17954;DHT22;9102;53.548;9.926;2022-11-15T01:37:05;6.50;99.90
17954;DHT22;9102;53.548;9.926;2022-11-15T01:39:32;6.50;99.90
17954;DHT22;9102;53.548;9.926;2022-11-15T01:41:58;6.50;99.90
17954;DHT22;9102;53.548;9.926;2022-11-15T01:44:40;6.50;99.90
17954;DHT22;9102;53.548;9.926;2022-11-15T01:47:10;6.40;99.90
17954;DHT22;9102;53.548;9.926;2022-11-15T01:49:41;6.30;99.90
17954;DHT22;9102;53.548;9.926;2022-11-15T01:52:16;6.40;99.90
17954;DHT22;9102;53.548;9.926;2022-11-15T01:54:45;6.40;99.90
17954;DHT22;9102;53.548;9.926;2022-11-15T01:57:13;6.30;99.90
17954;DHT22;9102;53.548;9.926;2022-11-15T01:59:42;6.30;99.90
17954;DHT22;9102;53.548;9.926;2022-11-15T02:02:10;6.30;99.90
17954;DHT22;9102;53.548;9.926;2022-11-15T02:04:41;6.30;99.90
17954;DHT22;9102;53.548;9.926;2022-11-15T02:07:10;6.30;99.90
17954;DHT22;9102;53.548;9.926;2022-11-15T02:09:38;6.30;99.90
17954;DHT22;9102;53.548;9.926;2022-11-15T02:12:07;6.30;99.90
17954;DHT22;9102;53.548;9.926;2022-11-15T02:14:36;6.30;99.90
17954;DHT22;9102;53.548;9.926;2022-11-15T02:17:16;6.20;99.90
17954;DHT22;9102;53.548;9.926;2022-11-15T02:23:04;6.20;99.90
17954;DHT22;9102;53.548;9.926;2022-11-15T02:25:40;6.20;99.90
17954;DHT22;9102;53.548;9.926;2022-11-15T02:28:41;6.20;99.90
17954;DHT22;9102;53.548;9.926;2022-11-15T02:31:17;6.20;99.90
17954;DHT22;9102;53.548;9.926;2022-11-15T02:33:54;6.10;99.90
17954;DHT22;9102;53.548;9.926;2022-11-15T02:36:33;6.10;99.90
17954;DHT22;9102;53.548;9.926;2022-11-15T02:39:06;6.10;99.90
17954;DHT22;9102;53.548;9.926;2022-11-15T02:41:42;6.00;99.90
17954;DHT22;9102;53.548;9.926;2022-11-15T02:44:15;6.00;99.90
17954;DHT22;9102;53.548;9.926;2022-11-15T02:46:47;6.10;99.90
17954;DHT22;9102;53.548;9.926;2022-11-15T02:49:34;6.00;99.90
17954;DHT22;9102;53.548;9.926;2022-11-15T02:52:01;6.00;99.90
17954;DHT22;9102;53.548;9.926;2022-11-15T02:54:30;6.00;99.90
17954;DHT22;9102;53.548;9.926;2022-11-15T02:57:00;6.00;99.90
17954;DHT22;9102;53.548;9.926;2022-11-15T02:59:42;6.00;99.90
17954;DHT22;9102;53.548;9.926;2022-11-15T03:02:24;6.00;99.90
17954;DHT22;9102;53.548;9.926;2022-11-15T03:04:54;6.00;99.90
17954;DHT22;9102;53.548;9.926;2022-11-15T03:07:27;6.00;99.90
17954;DHT22;9102;53.548;9.926;2022-11-15T03:10:01;6.00;99.90
17954;DHT22;9102;53.548;9.926;2022-11-15T03:12:34;6.00;99.90
17954;DHT22;9102;53.548;9.926;2022-11-15T03:15:06;5.90;99.90
17954;DHT22;9102;53.548;9.926;2022-11-15T03:17:38;6.00;99.90
17954;DHT22;9102;53.548;9.926;2022-11-15T03:20:07;6.00;99.90
17954;DHT22;9102;53.548;9.926;2022-11-15T03:22:38;6.00;99.90
17954;DHT22;9102;53.548;9.926;2022-11-15T03:25:09;6.00;99.90
17954;DHT22;9102;53.548;9.926;2022-11-15T03:27:40;6.10;99.90
17954;DHT22;9102;53.548;9.926;2022-11-15T03:30:09;6.10;99.90
17954;DHT22;9102;53.548;9.926;2022-11-15T03:32:41;6.00;99.90
17954;DHT22;9102;53.548;9.926;2022-11-15T03:35:12;6.10;99.90
17954;DHT22;9102;53.548;9.926;2022-11-15T03:37:45;6.20;99.90
17954;DHT22;9102;53.548;9.926;2022-11-15T03:40:13;6.20;99.90
17954;DHT22;9102;53.548;9.926;2022-11-15T03:42:45;6.20;99.90
17954;DHT22;9102;53.548;9.926;2022-11-15T03:45:15;6.20;99.90
17954;DHT22;9102;53.548;9.926;2022-11-15T03:47:49;6.20;99.90
17954;DHT22;9102;53.548;9.926;2022-11-15T03:50:19;6.20;99.90
17954;DHT22;9102;53.548;9.926;2022-11-15T03:52:47;6.20;99.90
17954;DHT22;9102;53.548;9.926;2022-11-15T03:55:17;6.30;99.90
17954;DHT22;9102;53.548;9.926;2022-11-15T03:57:44;6.20;99.90
17954;DHT22;9102;53.548;9.926;2022-11-15T04:00:11;6.40;99.90
17954;DHT22;9102;53.548;9.926;2022-11-15T04:02:38;6.30;99.90
17954;DHT22;9102;53.548;9.926;2022-11-15T04:05:07;6.30;99.90
17954;DHT22;9102;53.548;9.926;2022-11-15T04:07:34;6.30;99.90
17954;DHT22;9102;53.548;9.926;2022-11-15T04:10:01;6.40;99.90
17954;DHT22;9102;53.548;9.926;2022-11-15T04:12:31;6.50;99.90
17954;DHT22;9102;53.548;9.926;2022-11-15T04:15:00;6.50;99.90
17954;DHT22;9102;53.548;9.926;2022-11-15T04:17:38;6.60;99.90
17954;DHT22;9102;53.548;9.926;2022-11-15T04:20:09;6.60;99.90
17954;DHT22;9102;53.548;9.926;2022-11-15T04:22:55;6.60;99.90
17954;DHT22;9102;53.548;9.926;2022-11-15T04:25:40;6.60;99.90
17954;DHT22;9102;53.548;9.926;2022-11-15T04:28:07;6.70;99.90
17954;DHT22;9102;53.548;9.926;2022-11-15T04:30:34;6.70;99.90
17954;DHT22;9102;53.548;9.926;2022-11-15T04:33:01;6.70;99.90
17954;DHT22;9102;53.548;9.926;2022-11-15T04:35:29;6.70;99.90
17954;DHT22;9102;53.548;9.926;2022-11-15T04:37:56;6.70;99.90
17954;DHT22;9102;53.548;9.926;2022-11-15T04:40:23;6.70;99.90
17954;DHT22;9102;53.548;9.926;2022-11-15T04:42:49;6.90;99.90
17954;DHT22;9102;53.548;9.926;2022-11-15T04:45:16;6.80;99.90
17954;DHT22;9102;53.548;9.926;2022-11-15T04:47:43;6.90;99.90
17954;DHT22;9102;53.548;9.926;2022-11-15T04:50:11;6.90;99.90
17954;DHT22;9102;53.548;9.926;2022-11-15T04:52:41;7.00;99.90
17954;DHT22;9102;53.548;9.926;2022-11-15T04:55:08;7.10;99.90
17954;DHT22;9102;53.548;9.926;2022-11-15T04:57:35;7.20;99.90
17954;DHT22;9102;53.548;9.926;2022-11-15T05:00:04;7.10;99.90
17954;DHT22;9102;53.548;9.926;2022-11-15T05:02:31;7.20;99.90
17954;DHT22;9102;53.548;9.926;2022-11-15T05:05:12;7.10;99.90
17954;DHT22;9102;53.548;9.926;2022-11-15T05:07:38;7.30;99.90
17954;DHT22;9102;53.548;9.926;2022-11-15T05:10:07;7.30;99.90
17954;DHT22;9102;53.548;9.926;2022-11-15T05:12:34;7.20;99.90
17954;DHT22;9102;53.548;9.926;2022-11-15T05:15:01;7.30;99.90
17954;DHT22;9102;53.548;9.926;2022-11-15T05:17:28;7.30;99.90
17954;DHT22;9102;53.548;9.926;2022-11-15T05:19:55;7.30;99.90
17954;DHT22;9102;53.548;9.926;2022-11-15T05:22:22;7.30;99.90
17954;DHT22;9102;53.548;9.926;2022-11-15T05:24:49;7.40;99.90
17954;DHT22;9102;53.548;9.926;2022-11-15T05:27:17;7.30;99.90
17954;DHT22;9102;53.548;9.926;2022-11-15T05:29:44;7.40;99.90
17954;DHT22;9102;53.548;9.926;2022-11-15T05:32:12;7.30;99.90
17954;DHT22;9102;53.548;9.926;2022-11-15T05:34:39;7.30;99.90
17954;DHT22;9102;53.548;9.926;2022-11-15T05:37:06;7.30;99.90
17954;DHT22;9102;53.548;9.926;2022-11-15T05:39:32;7.30;99.90
17954;DHT22;9102;53.548;9.926;2022-11-15T05:42:01;7.30;99.90
17954;DHT22;9102;53.548;9.926;2022-11-15T05:44:32;7.40;99.90
17954;DHT22;9102;53.548;9.926;2022-11-15T05:47:00;7.50;99.90
17954;DHT22;9102;53.548;9.926;2022-11-15T05:49:30;7.40;99.90
17954;DHT22;9102;53.548;9.926;2022-11-15T05:51:58;7.40;99.90
17954;DHT22;9102;53.548;9.926;2022-11-15T05:54:25;7.40;99.90
17954;DHT22;9102;53.548;9.926;2022-11-15T05:56:52;7.40;99.90
17954;DHT22;9102;53.548;9.926;2022-11-15T05:59:21;7.40;99.90
17954;DHT22;9102;53.548;9.926;2022-11-15T06:01:49;7.40;99.90
17954;DHT22;9102;53.548;9.926;2022-11-15T06:04:16;7.40;99.90
17954;DHT22;9102;53.548;9.926;2022-11-15T06:06:43;7.40;99.90
17954;DHT22;9102;53.548;9.926;2022-11-15T06:09:10;7.40;99.90
17954;DHT22;9102;53.548;9.926;2022-11-15T06:11:36;7.40;99.90
17954;DHT22;9102;53.548;9.926;2022-11-15T06:14:04;7.40;99.90
17954;DHT22;9102;53.548;9.926;2022-11-15T06:16:31;7.40;99.90
17954;DHT22;9102;53.548;9.926;2022-11-15T06:18:59;7.40;99.90
17954;DHT22;9102;53.548;9.926;2022-11-15T06:21:26;7.30;99.90
17954;DHT22;9102;53.548;9.926;2022-11-15T06:23:54;7.40;99.90
17954;DHT22;9102;53.548;9.926;2022-11-15T06:26:21;7.40;99.90
17954;DHT22;9102;53.548;9.926;2022-11-15T06:28:48;7.40;99.90
17954;DHT22;9102;53.548;9.926;2022-11-15T06:31:15;7.30;99.90
17954;DHT22;9102;53.548;9.926;2022-11-15T06:33:42;7.40;99.90
17954;DHT22;9102;53.548;9.926;2022-11-15T06:36:12;7.40;99.90
17954;DHT22;9102;53.548;9.926;2022-11-15T06:38:40;7.40;99.90
17954;DHT22;9102;53.548;9.926;2022-11-15T06:41:09;7.40;99.90
17954;DHT22;9102;53.548;9.926;2022-11-15T06:43:36;7.40;99.90
17954;DHT22;9102;53.548;9.926;2022-11-15T06:46:04;7.40;99.90
17954;DHT22;9102;53.548;9.926;2022-11-15T06:48:33;7.50;99.90
17954;DHT22;9102;53.548;9.926;2022-11-15T06:51:01;7.50;99.90
17954;DHT22;9102;53.548;9.926;2022-11-15T06:53:31;7.50;99.90
17954;DHT22;9102;53.548;9.926;2022-11-15T06:55:59;7.50;99.90
17954;DHT22;9102;53.548;9.926;2022-11-15T06:58:27;7.60;99.90
17954;DHT22;9102;53.548;9.926;2022-11-15T07:00:57;7.60;99.90
17954;DHT22;9102;53.548;9.926;2022-11-15T07:03:24;7.60;99.90
17954;DHT22;9102;53.548;9.926;2022-11-15T07:05:52;7.60;99.90
17954;DHT22;9102;53.548;9.926;2022-11-15T07:08:20;7.60;99.90
17954;DHT22;9102;53.548;9.926;2022-11-15T07:10:48;7.70;99.90
17954;DHT22;9102;53.548;9.926;2022-11-15T07:13:15;7.70;99.90
17954;DHT22;9102;53.548;9.926;2022-11-15T07:15:42;7.60;99.90
17954;DHT22;9102;53.548;9.926;2022-11-15T07:18:09;7.70;99.90
17954;DHT22;9102;53.548;9.926;2022-11-15T07:20:36;7.60;99.90
17954;DHT22;9102;53.548;9.926;2022-11-15T07:23:03;7.70;99.90
17954;DHT22;9102;53.548;9.926;2022-11-15T07:25:31;7.50;99.90
17954;DHT22;9102;53.548;9.926;2022-11-15T07:28:00;7.50;99.90
17954;DHT22;9102;53.548;9.926;2022-11-15T07:30:27;7.60;99.90
17954;DHT22;9102;53.548;9.926;2022-11-15T07:32:54;7.60;99.90
17954;DHT22;9102;53.548;9.926;2022-11-15T07:35:21;7.60;99.90
17954;DHT22;9102;53.548;9.926;2022-11-15T07:37:55;7.80;99.90
17954;DHT22;9102;53.548;9.926;2022-11-15T07:40:23;7.60;99.90
17954;DHT22;9102;53.548;9.926;2022-11-15T07:42:50;7.60;99.90
17954;DHT22;9102;53.548;9.926;2022-11-15T07:45:22;7.60;99.90
17954;DHT22;9102;53.548;9.926;2022-11-15T07:47:51;7.70;99.90
17954;DHT22;9102;53.548;9.926;2022-11-15T07:50:18;7.80;99.90
17954;DHT22;9102;53.548;9.926;2022-11-15T07:52:45;7.90;99.90
17954;DHT22;9102;53.548;9.926;2022-11-15T07:55:12;8.00;99.90
17954;DHT22;9102;53.548;9.926;2022-11-15T07:57:39;8.00;99.90
17954;DHT22;9102;53.548;9.926;2022-11-15T08:00:07;8.10;99.90
17954;DHT22;9102;53.548;9.926;2022-11-15T08:02:35;8.20;99.90
17954;DHT22;9102;53.548;9.926;2022-11-15T08:05:02;8.20;99.90
17954;DHT22;9102;53.548;9.926;2022-11-15T08:07:30;8.30;99.90
17954;DHT22;9102;53.548;9.926;2022-11-15T08:09:57;8.30;99.90
17954;DHT22;9102;53.548;9.926;2022-11-15T08:12:26;8.30;99.90
17954;DHT22;9102;53.548;9.926;2022-11-15T08:14:54;8.30;99.90
17954;DHT22;9102;53.548;9.926;2022-11-15T08:17:20;8.30;99.90
17954;DHT22;9102;53.548;9.926;2022-11-15T08:19:49;8.30;99.90
17954;DHT22;9102;53.548;9.926;2022-11-15T08:22:15;8.20;99.90
17954;DHT22;9102;53.548;9.926;2022-11-15T08:24:43;8.20;99.90
17954;DHT22;9102;53.548;9.926;2022-11-15T08:27:10;8.10;99.90
17954;DHT22;9102;53.548;9.926;2022-11-15T08:29:42;8.30;99.90
17954;DHT22;9102;53.548;9.926;2022-11-15T08:32:10;8.40;99.90
17954;DHT22;9102;53.548;9.926;2022-11-15T08:34:37;8.40;99.90
17954;DHT22;9102;53.548;9.926;2022-11-15T08:37:06;8.40;99.90
17954;DHT22;9102;53.548;9.926;2022-11-15T08:39:32;8.50;99.90
17954;DHT22;9102;53.548;9.926;2022-11-15T08:41:59;8.60;99.90
17954;DHT22;9102;53.548;9.926;2022-11-15T08:44:26;8.50;99.90
17954;DHT22;9102;53.548;9.926;2022-11-15T08:46:53;8.50;99.90
17954;DHT22;9102;53.548;9.926;2022-11-15T08:49:20;8.50;99.90
17954;DHT22;9102;53.548;9.926;2022-11-15T08:51:46;8.50;99.90
17954;DHT22;9102;53.548;9.926;2022-11-15T08:54:14;8.40;99.90
17954;DHT22;9102;53.548;9.926;2022-11-15T08:56:41;8.30;99.90
17954;DHT22;9102;53.548;9.926;2022-11-15T08:59:08;8.20;99.90
17954;DHT22;9102;53.548;9.926;2022-11-15T09:01:35;8.10;99.90
17954;DHT22;9102;53.548;9.926;2022-11-15T09:04:02;8.20;99.90
17954;DHT22;9102;53.548;9.926;2022-11-15T09:06:29;8.30;99.90
17954;DHT22;9102;53.548;9.926;2022-11-15T09:08:56;8.50;99.90
17954;DHT22;9102;53.548;9.926;2022-11-15T09:11:24;8.50;99.90
17954;DHT22;9102;53.548;9.926;2022-11-15T09:13:52;8.70;99.90
17954;DHT22;9102;53.548;9.926;2022-11-15T09:16:18;8.80;99.90
17954;DHT22;9102;53.548;9.926;2022-11-15T09:18:45;8.80;99.90
17954;DHT22;9102;53.548;9.926;2022-11-15T09:21:12;8.90;99.90
17954;DHT22;9102;53.548;9.926;2022-11-15T09:23:39;8.80;99.90
17954;DHT22;9102;53.548;9.926;2022-11-15T09:26:06;8.90;99.90
17954;DHT22;9102;53.548;9.926;2022-11-15T09:28:35;9.10;99.90
17954;DHT22;9102;53.548;9.926;2022-11-15T09:31:05;9.20;99.90
17954;DHT22;9102;53.548;9.926;2022-11-15T09:33:32;9.30;99.90
17954;DHT22;9102;53.548;9.926;2022-11-15T09:36:03;9.40;99.90
17954;DHT22;9102;53.548;9.926;2022-11-15T09:38:31;9.40;99.90
17954;DHT22;9102;53.548;9.926;2022-11-15T09:41:13;9.50;99.90
17954;DHT22;9102;53.548;9.926;2022-11-15T09:43:49;9.60;99.90
17954;DHT22;9102;53.548;9.926;2022-11-15T09:46:24;9.80;99.90
17954;DHT22;9102;53.548;9.926;2022-11-15T09:48:54;9.90;99.90
17954;DHT22;9102;53.548;9.926;2022-11-15T09:51:28;9.90;99.90
17954;DHT22;9102;53.548;9.926;2022-11-15T09:54:00;9.90;99.90
17954;DHT22;9102;53.548;9.926;2022-11-15T09:56:30;9.70;99.90
17954;DHT22;9102;53.548;9.926;2022-11-15T09:59:07;9.60;99.90
17954;DHT22;9102;53.548;9.926;2022-11-15T10:01:44;9.40;99.90
17954;DHT22;9102;53.548;9.926;2022-11-15T10:04:14;9.30;99.90
17954;DHT22;9102;53.548;9.926;2022-11-15T10:06:49;9.30;99.90
17954;DHT22;9102;53.548;9.926;2022-11-15T10:09:19;9.30;99.90
17954;DHT22;9102;53.548;9.926;2022-11-15T10:11:47;9.40;99.90
17954;DHT22;9102;53.548;9.926;2022-11-15T10:14:18;9.50;99.90
17954;DHT22;9102;53.548;9.926;2022-11-15T10:19:52;9.70;99.90
17954;DHT22;9102;53.548;9.926;2022-11-15T10:22:28;9.80;99.90
17954;DHT22;9102;53.548;9.926;2022-11-15T10:25:21;9.80;99.90
17954;DHT22;9102;53.548;9.926;2022-11-15T10:27:57;9.80;99.90
17954;DHT22;9102;53.548;9.926;2022-11-15T10:30:32;9.90;99.90
17954;DHT22;9102;53.548;9.926;2022-11-15T10:33:13;9.90;99.90
17954;DHT22;9102;53.548;9.926;2022-11-15T10:35:43;9.80;99.90
17954;DHT22;9102;53.548;9.926;2022-11-15T10:38:11;9.80;99.90
17954;DHT22;9102;53.548;9.926;2022-11-15T10:40:39;9.80;99.90
17954;DHT22;9102;53.548;9.926;2022-11-15T10:43:14;9.80;99.90
17954;DHT22;9102;53.548;9.926;2022-11-15T10:45:44;9.80;99.90
17954;DHT22;9102;53.548;9.926;2022-11-15T10:48:23;9.80;99.90
17954;DHT22;9102;53.548;9.926;2022-11-15T10:50:51;9.80;99.90
17954;DHT22;9102;53.548;9.926;2022-11-15T10:53:23;9.80;99.90
17954;DHT22;9102;53.548;9.926;2022-11-15T10:55:52;9.80;99.90
17954;DHT22;9102;53.548;9.926;2022-11-15T10:58:27;9.90;99.90
17954;DHT22;9102;53.548;9.926;2022-11-15T11:01:09;9.90;99.90
17954;DHT22;9102;53.548;9.926;2022-11-15T11:03:37;10.00;99.90
17954;DHT22;9102;53.548;9.926;2022-11-15T11:06:07;10.10;99.90
17954;DHT22;9102;53.548;9.926;2022-11-15T11:08:34;10.20;99.90
17954;DHT22;9102;53.548;9.926;2022-11-15T11:11:03;10.30;99.90
17954;DHT22;9102;53.548;9.926;2022-11-15T11:13:31;10.30;99.90
17954;DHT22;9102;53.548;9.926;2022-11-15T11:16:14;10.40;99.90
17954;DHT22;9102;53.548;9.926;2022-11-15T11:18:49;10.50;99.90
17954;DHT22;9102;53.548;9.926;2022-11-15T11:21:24;10.50;99.90
17954;DHT22;9102;53.548;9.926;2022-11-15T11:23:56;10.60;99.90
17954;DHT22;9102;53.548;9.926;2022-11-15T11:26:37;10.60;99.90
17954;DHT22;9102;53.548;9.926;2022-11-15T11:29:19;10.70;99.90
17954;DHT22;9102;53.548;9.926;2022-11-15T11:31:54;10.70;99.90
17954;DHT22;9102;53.548;9.926;2022-11-15T11:34:34;10.80;99.90
17954;DHT22;9102;53.548;9.926;2022-11-15T11:37:09;10.90;99.90
17954;DHT22;9102;53.548;9.926;2022-11-15T11:39:48;11.00;99.90
17954;DHT22;9102;53.548;9.926;2022-11-15T11:42:24;11.00;99.90
17954;DHT22;9102;53.548;9.926;2022-11-15T11:45:00;11.00;99.90
17954;DHT22;9102;53.548;9.926;2022-11-15T11:47:39;11.00;99.90
17954;DHT22;9102;53.548;9.926;2022-11-15T11:50:13;11.00;99.90
17954;DHT22;9102;53.548;9.926;2022-11-15T11:52:44;11.00;99.90
17954;DHT22;9102;53.548;9.926;2022-11-15T11:55:15;11.00;99.90
17954;DHT22;9102;53.548;9.926;2022-11-15T11:57:50;10.90;99.90
17954;DHT22;9102;53.548;9.926;2022-11-15T12:00:20;11.00;99.90
17954;DHT22;9102;53.548;9.926;2022-11-15T12:02:56;10.90;99.90
17954;DHT22;9102;53.548;9.926;2022-11-15T12:05:32;11.00;99.90
17954;DHT22;9102;53.548;9.926;2022-11-15T12:08:07;11.00;99.90
17954;DHT22;9102;53.548;9.926;2022-11-15T12:10:36;11.10;99.90
17954;DHT22;9102;53.548;9.926;2022-11-15T12:13:07;11.20;99.90
17954;DHT22;9102;53.548;9.926;2022-11-15T12:15:40;11.20;99.90
17954;DHT22;9102;53.548;9.926;2022-11-15T12:18:13;11.10;99.90
17954;DHT22;9102;53.548;9.926;2022-11-15T12:20:52;11.10;99.90
17954;DHT22;9102;53.548;9.926;2022-11-15T12:23:23;11.20;99.90
17954;DHT22;9102;53.548;9.926;2022-11-15T12:25:53;11.20;99.90
17954;DHT22;9102;53.548;9.926;2022-11-15T12:28:29;11.30;99.90
17954;DHT22;9102;53.548;9.926;2022-11-15T12:31:03;11.20;99.90
17954;DHT22;9102;53.548;9.926;2022-11-15T12:33:36;11.10;99.90
17954;DHT22;9102;53.548;9.926;2022-11-15T12:36:05;11.00;99.90
17954;DHT22;9102;53.548;9.926;2022-11-15T12:38:56;11.00;99.90
17954;DHT22;9102;53.548;9.926;2022-11-15T12:41:25;11.10;99.90
17954;DHT22;9102;53.548;9.926;2022-11-15T12:43:52;11.10;99.90
17954;DHT22;9102;53.548;9.926;2022-11-15T12:46:22;11.10;99.90
17954;DHT22;9102;53.548;9.926;2022-11-15T12:48:56;11.10;99.90
17954;DHT22;9102;53.548;9.926;2022-11-15T12:54:54;11.10;99.90
17954;DHT22;9102;53.548;9.926;2022-11-15T12:57:38;11.10;99.90
17954;DHT22;9102;53.548;9.926;2022-11-15T13:03:25;11.20;99.90
17954;DHT22;9102;53.548;9.926;2022-11-15T13:06:09;11.30;99.90
17954;DHT22;9102;53.548;9.926;2022-11-15T13:08:42;11.20;99.90
17954;DHT22;9102;53.548;9.926;2022-11-15T13:14:48;11.30;99.90
17954;DHT22;9102;53.548;9.926;2022-11-15T13:17:40;11.30;99.90
17954;DHT22;9102;53.548;9.926;2022-11-15T13:20:29;11.50;99.90
17954;DHT22;9102;53.548;9.926;2022-11-15T13:23:07;11.50;99.90
17954;DHT22;9102;53.548;9.926;2022-11-15T13:25:57;11.60;99.90
17954;DHT22;9102;53.548;9.926;2022-11-15T13:28:31;11.60;99.90
17954;DHT22;9102;53.548;9.926;2022-11-15T13:31:00;11.70;99.90
17954;DHT22;9102;53.548;9.926;2022-11-15T13:33:31;11.70;99.90
17954;DHT22;9102;53.548;9.926;2022-11-15T13:36:01;11.70;99.90
17954;DHT22;9102;53.548;9.926;2022-11-15T13:38:31;11.80;99.90
17954;DHT22;9102;53.548;9.926;2022-11-15T13:40:59;11.80;99.90
17954;DHT22;9102;53.548;9.926;2022-11-15T13:43:36;11.80;99.90
17954;DHT22;9102;53.548;9.926;2022-11-15T13:46:05;11.80;99.90
17954;DHT22;9102;53.548;9.926;2022-11-15T13:48:32;11.90;99.90
17954;DHT22;9102;53.548;9.926;2022-11-15T13:51:00;11.90;99.90
17954;DHT22;9102;53.548;9.926;2022-11-15T13:53:27;11.90;99.90
17954;DHT22;9102;53.548;9.926;2022-11-15T13:55:56;11.80;99.90
17954;DHT22;9102;53.548;9.926;2022-11-15T13:58:24;11.90;99.90
17954;DHT22;9102;53.548;9.926;2022-11-15T14:00:59;11.90;99.90
17954;DHT22;9102;53.548;9.926;2022-11-15T14:03:28;11.90;99.90
17954;DHT22;9102;53.548;9.926;2022-11-15T14:06:09;12.00;99.90
17954;DHT22;9102;53.548;9.926;2022-11-15T14:08:37;12.00;99.90
17954;DHT22;9102;53.548;9.926;2022-11-15T14:11:13;12.00;99.90
17954;DHT22;9102;53.548;9.926;2022-11-15T14:13:42;11.90;99.90
17954;DHT22;9102;53.548;9.926;2022-11-15T14:16:17;11.90;99.90
17954;DHT22;9102;53.548;9.926;2022-11-15T14:18:46;11.90;99.90
17954;DHT22;9102;53.548;9.926;2022-11-15T14:21:14;11.90;99.90
17954;DHT22;9102;53.548;9.926;2022-11-15T14:23:41;11.90;99.90
17954;DHT22;9102;53.548;9.926;2022-11-15T14:26:26;11.90;99.90
17954;DHT22;9102;53.548;9.926;2022-11-15T14:28:53;11.80;99.90
17954;DHT22;9102;53.548;9.926;2022-11-15T14:31:20;11.80;99.90
17954;DHT22;9102;53.548;9.926;2022-11-15T14:33:47;11.80;99.90
17954;DHT22;9102;53.548;9.926;2022-11-15T14:36:16;11.80;99.90
17954;DHT22;9102;53.548;9.926;2022-11-15T14:38:43;11.80;99.90
17954;DHT22;9102;53.548;9.926;2022-11-15T14:41:18;11.70;99.90
17954;DHT22;9102;53.548;9.926;2022-11-15T14:43:45;11.70;99.90
17954;DHT22;9102;53.548;9.926;2022-11-15T14:46:12;11.70;99.90
17954;DHT22;9102;53.548;9.926;2022-11-15T14:48:39;11.60;99.90
17954;DHT22;9102;53.548;9.926;2022-11-15T14:51:11;11.60;99.90
17954;DHT22;9102;53.548;9.926;2022-11-15T14:53:39;11.60;99.90
17954;DHT22;9102;53.548;9.926;2022-11-15T14:56:06;11.50;99.90
17954;DHT22;9102;53.548;9.926;2022-11-15T14:58:34;11.50;99.90
17954;DHT22;9102;53.548;9.926;2022-11-15T15:01:02;11.50;99.90
17954;DHT22;9102;53.548;9.926;2022-11-15T15:03:29;11.50;99.90
17954;DHT22;9102;53.548;9.926;2022-11-15T15:05:56;11.40;99.90
17954;DHT22;9102;53.548;9.926;2022-11-15T15:08:23;11.40;99.90
17954;DHT22;9102;53.548;9.926;2022-11-15T15:10:49;11.40;99.90
17954;DHT22;9102;53.548;9.926;2022-11-15T15:13:18;11.30;99.90
17954;DHT22;9102;53.548;9.926;2022-11-15T15:15:47;11.30;99.90
17954;DHT22;9102;53.548;9.926;2022-11-15T15:18:14;11.30;99.90
17954;DHT22;9102;53.548;9.926;2022-11-15T15:20:42;11.20;99.90
17954;DHT22;9102;53.548;9.926;2022-11-15T15:23:15;11.20;99.90
17954;DHT22;9102;53.548;9.926;2022-11-15T15:25:42;11.10;99.90
17954;DHT22;9102;53.548;9.926;2022-11-15T15:28:09;11.00;99.90
17954;DHT22;9102;53.548;9.926;2022-11-15T15:30:36;11.00;99.90
17954;DHT22;9102;53.548;9.926;2022-11-15T15:33:04;11.00;99.90
17954;DHT22;9102;53.548;9.926;2022-11-15T15:35:32;10.90;99.90
17954;DHT22;9102;53.548;9.926;2022-11-15T15:38:00;10.80;99.90
17954;DHT22;9102;53.548;9.926;2022-11-15T15:40:30;10.80;99.90
17954;DHT22;9102;53.548;9.926;2022-11-15T15:42:57;10.80;99.90
17954;DHT22;9102;53.548;9.926;2022-11-15T15:45:25;10.70;99.90
17954;DHT22;9102;53.548;9.926;2022-11-15T15:47:52;10.60;99.90
17954;DHT22;9102;53.548;9.926;2022-11-15T15:50:26;10.70;99.90
17954;DHT22;9102;53.548;9.926;2022-11-15T15:52:55;10.70;99.90
17954;DHT22;9102;53.548;9.926;2022-11-15T15:55:23;10.60;99.90
17954;DHT22;9102;53.548;9.926;2022-11-15T15:57:50;10.60;99.90
17954;DHT22;9102;53.548;9.926;2022-11-15T16:00:18;10.60;99.90
17954;DHT22;9102;53.548;9.926;2022-11-15T16:02:45;10.60;99.90
17954;DHT22;9102;53.548;9.926;2022-11-15T16:05:12;10.60;99.90
17954;DHT22;9102;53.548;9.926;2022-11-15T16:07:41;10.70;99.90
17954;DHT22;9102;53.548;9.926;2022-11-15T16:10:19;10.60;99.90
17954;DHT22;9102;53.548;9.926;2022-11-15T16:12:46;10.70;99.90
17954;DHT22;9102;53.548;9.926;2022-11-15T16:15:14;10.60;99.90
17954;DHT22;9102;53.548;9.926;2022-11-15T16:17:43;10.70;99.90
17954;DHT22;9102;53.548;9.926;2022-11-15T16:20:31;10.70;99.90
17954;DHT22;9102;53.548;9.926;2022-11-15T16:23:00;10.80;99.90
17954;DHT22;9102;53.548;9.926;2022-11-15T16:25:27;10.80;99.90
17954;DHT22;9102;53.548;9.926;2022-11-15T16:27:53;10.80;99.90
17954;DHT22;9102;53.548;9.926;2022-11-15T16:30:21;10.90;99.90
17954;DHT22;9102;53.548;9.926;2022-11-15T16:32:48;10.90;99.90